Time;durP1;ratioP1;P1;durP2;ratioP2;P2;SDS_P1;SDS_P2;PMS_P1;PMS_P2;Temp;Humidity;BMP_temperature;BMP_pressure;BME280_temperature;BME280_humidity;BME280_pressure;Samples;Min_cycle;Max_cycle;Signal;HPM_P1;HPM_P2
2021/08/05 00:00:26;;;;;;;4.67;2.37;;;;;;;13.42;90.30;100743.09;5114473;28;20531;-71
2021/08/05 00:02:52;;;;;;;2.10;1.90;;;;;;;13.58;89.54;100742.94;5114012;28;20173;-71
2021/08/05 00:05:17;;;;;;;3.43;2.40;;;;;;;13.65;89.23;100738.00;5112638;28;20170;-70
2021/08/05 00:07:43;;;;;;;2.93;1.90;;;;;;;13.54;88.75;100740.56;5113551;28;20189;-70
2021/08/05 00:10:08;;;;;;;2.33;1.77;;;;;;;13.38;89.64;100746.97;5113539;28;20339;-71
2021/08/05 00:12:33;;;;;;;3.23;1.90;;;;;;;13.29;90.74;100744.84;5095354;28;20507;-71
2021/08/05 00:14:59;;;;;;;3.30;1.80;;;;;;;13.25;90.83;100737.97;5112690;28;20181;-71
2021/08/05 00:17:24;;;;;;;2.47;1.90;;;;;;;13.23;91.13;100742.59;5096671;28;20174;-71
2021/08/05 00:19:49;;;;;;;7.30;1.70;;;;;;;13.14;91.41;100745.84;5116197;28;20196;-71
2021/08/05 00:22:15;;;;;;;3.13;2.00;;;;;;;13.04;91.71;100750.06;5116206;28;20273;-70
2021/08/05 00:24:40;;;;;;;4.17;2.00;;;;;;;13.00;91.67;100756.56;5116184;28;20178;-70
2021/08/05 00:27:05;;;;;;;4.83;2.00;;;;;;;12.98;92.76;100753.13;5117130;28;20190;-70
2021/08/05 00:29:30;;;;;;;5.27;2.03;;;;;;;13.01;92.54;100755.63;5098668;28;20241;-71
2021/08/05 00:31:56;;;;;;;2.70;1.93;;;;;;;13.10;92.09;100752.34;5117712;28;20173;-70
2021/08/05 00:34:21;;;;;;;3.50;1.97;;;;;;;13.28;90.77;100758.34;5115599;28;20174;-70
2021/08/05 00:36:46;;;;;;;2.80;2.30;;;;;;;13.40;90.25;100754.91;5115939;28;20567;-70
2021/08/05 00:39:12;;;;;;;3.43;2.13;;;;;;;13.38;90.09;100749.63;5115725;28;20189;-70
2021/08/05 00:41:37;;;;;;;2.63;1.93;;;;;;;13.41;90.00;100744.06;5117342;28;20178;-70
2021/08/05 00:44:03;;;;;;;5.07;1.97;;;;;;;13.49;90.13;100746.25;5116649;28;20645;-70
2021/08/05 00:46:28;;;;;;;3.50;2.40;;;;;;;13.62;90.42;100744.44;5115509;28;20197;-70
2021/08/05 00:48:54;;;;;;;3.00;2.20;;;;;;;13.81;89.49;100733.34;5115434;28;20242;-69
2021/08/05 00:51:20;;;;;;;4.93;2.20;;;;;;;13.94;89.17;100728.88;5115686;28;20325;-70
2021/08/05 00:53:45;;;;;;;3.30;2.30;;;;;;;14.06;88.45;100729.84;5116670;28;20173;-70
2021/08/05 00:56:11;;;;;;;4.27;2.27;;;;;;;14.13;88.16;100717.75;5116660;28;20166;-70
2021/08/05 00:58:37;;;;;;;2.20;1.90;;;;;;;14.16;87.58;100714.84;5115143;28;20214;-70
2021/08/05 01:01:23;;;;;;;4.67;2.20;;;;;;;14.05;88.04;100725.44;5115198;28;20223;-70
2021/08/05 01:03:52;;;;;;;2.47;2.13;;;;;;;14.01;88.37;100719.41;5097874;28;20174;-70
2021/08/05 01:06:44;;;;;;;4.63;2.23;;;;;;;13.97;88.44;100715.22;5097948;28;20193;-70
2021/08/05 01:09:16;;;;;;;2.10;1.90;;;;;;;14.05;87.64;100707.50;5114832;28;20573;-70
2021/08/05 01:11:45;;;;;;;2.37;1.93;;;;;;;14.05;87.14;100710.19;5115103;28;20149;-70
2021/08/05 01:14:13;;;;;;;3.17;1.77;;;;;;;13.93;87.73;100713.72;5114833;28;20166;-70
2021/08/05 01:16:42;;;;;;;3.97;1.40;;;;;;;13.64;88.05;100709.47;5114805;28;20172;-70
2021/08/05 01:19:12;;;;;;;2.93;1.80;;;;;;;13.36;88.28;100711.31;5114858;28;20205;-70
2021/08/05 01:21:50;;;;;;;2.57;1.60;;;;;;;13.05;89.79;100701.75;5114883;28;20173;-70
2021/08/05 01:24:18;;;;;;;2.93;2.00;;;;;;;12.92;90.87;100698.13;5114861;28;20185;-70
2021/08/05 01:26:46;;;;;;;2.87;1.80;;;;;;;12.75;91.20;100693.88;5097571;28;20292;-70
2021/08/05 01:29:11;;;;;;;3.50;1.80;;;;;;;12.60;92.57;100694.81;5115038;28;20208;-70
2021/08/05 01:31:36;;;;;;;5.53;1.80;;;;;;;12.54;93.19;100695.22;5097700;28;20169;-70
2021/08/05 01:34:02;;;;;;;1.70;1.60;;;;;;;12.46;94.68;100698.38;5114988;28;20252;-70
2021/08/05 01:36:28;;;;;;;2.30;2.07;;;;;;;12.33;95.45;100697.44;5114866;28;20161;-69
2021/08/05 01:38:54;;;;;;;2.63;2.00;;;;;;;12.25;96.49;100701.53;5097386;28;20234;-70
2021/08/05 01:41:21;;;;;;;4.63;1.87;;;;;;;12.28;97.77;100693.34;5114506;28;20264;-70
2021/08/05 01:43:47;;;;;;;2.40;2.20;;;;;;;12.51;97.35;100688.25;5114932;28;20174;-70
2021/08/05 01:46:13;;;;;;;2.53;2.00;;;;;;;12.87;96.03;100691.34;5114859;28;20205;-70
2021/08/05 01:48:39;;;;;;;2.80;2.30;;;;;;;13.10;93.84;100693.41;5114507;28;20196;-70
2021/08/05 01:51:04;;;;;;;3.73;2.23;;;;;;;13.23;92.83;100688.97;5114472;28;20209;-70
2021/08/05 01:53:31;;;;;;;6.37;2.40;;;;;;;13.41;91.46;100689.59;5115483;27;20215;-69
2021/08/05 01:55:56;;;;;;;5.77;2.13;;;;;;;13.52;90.89;100684.38;5114278;28;20177;-69
2021/08/05 01:58:21;;;;;;;3.27;2.07;;;;;;;13.22;90.91;100687.25;5097064;28;20220;-69
2021/08/05 02:00:47;;;;;;;2.93;1.90;;;;;;;12.84;92.34;100682.56;5114503;28;20219;-70
2021/08/05 02:03:13;;;;;;;2.20;2.00;;;;;;;12.56;93.31;100687.94;5116762;28;20169;-70
2021/08/05 02:06:06;;;;;;;3.77;2.30;;;;;;;12.31;95.70;100682.44;5098398;28;20177;-70
2021/08/05 02:08:40;;;;;;;3.73;2.37;;;;;;;12.07;96.80;100677.63;5116608;28;20199;-70
2021/08/05 02:11:06;;;;;;;7.33;2.37;;;;;;;11.94;97.62;100674.00;5097041;28;20197;-70
2021/08/05 02:13:35;;;;;;;3.67;2.70;;;;;;;11.87;98.66;100664.59;5114032;28;20630;-69
2021/08/05 02:16:02;;;;;;;4.97;3.00;;;;;;;12.67;98.33;100669.41;5114381;28;20172;-69
2021/08/05 02:18:31;;;;;;;4.20;2.40;;;;;;;12.92;95.91;100667.81;5113818;28;20288;-69
2021/08/05 02:20:56;;;;;;;4.70;2.70;;;;;;;13.13;95.91;100669.09;5113996;28;20589;-70
2021/08/05 02:23:22;;;;;;;4.80;2.70;;;;;;;13.23;94.83;100672.03;5114925;28;20212;-70
2021/08/05 02:25:49;;;;;;;3.27;2.20;;;;;;;12.67;92.27;100680.13;5113457;28;20173;-70
2021/08/05 02:28:16;;;;;;;4.20;2.20;;;;;;;12.36;93.88;100675.84;5113300;28;20201;-69
2021/08/05 02:30:41;;;;;;;3.40;2.30;;;;;;;12.03;96.44;100673.44;5113536;28;20170;-70
2021/08/05 02:33:07;;;;;;;2.37;2.17;;;;;;;11.85;96.41;100671.88;5114246;28;20179;-70
2021/08/05 02:35:37;;;;;;;2.97;2.20;;;;;;;11.75;96.02;100678.69;5114117;28;20203;-69
2021/08/05 02:38:04;;;;;;;2.93;2.13;;;;;;;11.61;96.75;100667.97;5096091;28;20542;-70
2021/08/05 02:40:29;;;;;;;4.03;2.30;;;;;;;11.57;97.20;100667.31;5112311;28;20184;-69
2021/08/05 02:42:55;;;;;;;4.27;2.50;;;;;;;11.53;98.05;100665.78;5113304;28;20169;-70
2021/08/05 02:45:21;;;;;;;3.80;2.70;;;;;;;11.53;98.00;100671.13;5113186;28;20599;-70
2021/08/05 02:47:46;;;;;;;5.47;3.00;;;;;;;11.54;98.59;100665.69;5095892;28;20341;-70
2021/08/05 02:50:13;;;;;;;4.67;2.90;;;;;;;11.54;99.60;100663.00;5096232;28;20173;-69
2021/08/05 02:52:39;;;;;;;5.30;2.80;;;;;;;11.49;99.19;100666.88;5113582;28;20542;-69
2021/08/05 02:55:05;;;;;;;4.33;2.80;;;;;;;11.49;99.14;100669.56;5095875;28;20178;-69
2021/08/05 02:57:30;;;;;;;4.73;3.07;;;;;;;11.45;99.34;100668.00;5114192;28;20178;-70
2021/08/05 02:59:56;;;;;;;4.83;3.30;;;;;;;11.36;98.86;100671.22;5113300;28;20177;-70
2021/08/05 03:02:21;;;;;;;5.27;3.10;;;;;;;11.38;99.32;100669.34;5095952;28;20173;-70
2021/08/05 03:04:48;;;;;;;4.63;2.97;;;;;;;11.33;99.00;100672.28;5114096;28;20660;-70
2021/08/05 03:07:14;;;;;;;5.23;3.37;;;;;;;11.28;100.00;100669.03;5112626;28;20296;-70
2021/08/05 03:09:39;;;;;;;5.80;3.77;;;;;;;11.29;100.00;100670.75;5112561;28;20300;-70
2021/08/05 03:12:04;;;;;;;3.90;3.50;;;;;;;11.30;100.00;100668.94;5095565;28;20181;-70
2021/08/05 03:14:32;;;;;;;5.63;3.90;;;;;;;11.22;100.00;100680.94;5112640;28;20177;-70
2021/08/05 03:16:57;;;;;;;6.20;3.90;;;;;;;11.19;100.00;100674.91;5112578;28;20225;-70
2021/08/05 03:19:22;;;;;;;4.67;3.80;;;;;;;11.14;100.00;100674.28;5113836;28;20201;-70
2021/08/05 03:21:48;;;;;;;6.67;3.23;;;;;;;11.14;100.00;100659.13;5112410;28;20657;-70
2021/08/05 03:24:13;;;;;;;6.27;3.90;;;;;;;11.25;100.00;100664.72;5095339;28;20177;-70
2021/08/05 03:26:38;;;;;;;6.60;4.00;;;;;;;11.37;100.00;100654.25;5112895;28;20205;-70
2021/08/05 03:29:03;;;;;;;5.03;3.90;;;;;;;11.49;100.00;100659.72;5112204;28;20742;-70
2021/08/05 03:31:29;;;;;;;4.63;4.17;;;;;;;11.94;100.00;100659.78;5095455;28;20181;-70
2021/08/05 03:33:54;;;;;;;4.90;3.47;;;;;;;11.98;100.00;100659.50;5112538;28;20182;-70
2021/08/05 03:36:19;;;;;;;4.63;3.50;;;;;;;11.66;100.00;100657.88;5095718;28;20173;-69
2021/08/05 03:38:45;;;;;;;4.60;2.87;;;;;;;11.71;100.00;100653.97;5112452;28;20710;-70
2021/08/05 03:41:10;;;;;;;4.37;3.40;;;;;;;11.91;100.00;100657.28;5112884;28;20181;-70
2021/08/05 03:43:35;;;;;;;4.07;3.67;;;;;;;12.42;100.00;100655.84;5113752;28;20170;-70
2021/08/05 03:46:01;;;;;;;3.30;3.00;;;;;;;12.65;100.00;100652.59;5113632;28;20243;-70
2021/08/05 03:48:26;;;;;;;3.80;2.83;;;;;;;12.77;100.00;100642.88;5114230;28;20189;-70
2021/08/05 03:50:52;;;;;;;4.33;2.97;;;;;;;12.83;99.66;100646.03;5112285;28;20207;-70
2021/08/05 03:53:17;;;;;;;6.50;3.23;;;;;;;12.90;99.50;100646.47;5115650;28;20173;-70
2021/08/05 03:55:42;;;;;;;7.53;3.07;;;;;;;12.99;98.81;100647.69;5116591;28;20233;-70
2021/08/05 03:58:09;;;;;;;3.33;2.87;;;;;;;13.02;99.03;100643.00;5117637;28;20197;-70
2021/08/05 04:00:35;;;;;;;4.43;2.83;;;;;;;13.09;98.55;100638.09;5116846;28;20169;-70
2021/08/05 04:03:00;;;;;;;4.27;2.90;;;;;;;13.10;98.47;100643.34;5116256;28;20304;-70
2021/08/05 04:05:26;;;;;;;3.40;2.87;;;;;;;13.05;98.30;100649.97;5116430;28;20180;-70
2021/08/05 04:07:51;;;;;;;5.47;2.53;;;;;;;12.70;95.50;100653.13;5099320;28;20216;-70
2021/08/05 04:10:16;;;;;;;3.47;2.30;;;;;;;12.46;95.41;100649.34;5116637;28;20229;-70
2021/08/05 04:12:42;;;;;;;3.97;2.30;;;;;;;12.25;96.01;100648.00;5099482;28;20182;-70
2021/08/05 04:15:08;;;;;;;3.80;2.63;;;;;;;12.08;97.38;100649.94;5117633;28;20174;-70
2021/08/05 04:17:34;;;;;;;6.27;2.60;;;;;;;12.02;97.19;100647.66;5098971;28;20185;-70
2021/08/05 04:19:59;;;;;;;6.67;3.03;;;;;;;12.06;96.84;100645.63;5099015;28;20182;-69
2021/08/05 04:22:25;;;;;;;8.07;3.00;;;;;;;12.07;96.71;100648.22;5116507;28;20196;-70
2021/08/05 04:24:50;;;;;;;5.43;3.30;;;;;;;12.10;97.43;100641.81;5117571;28;20177;-71
2021/08/05 04:27:15;;;;;;;5.83;3.60;;;;;;;12.29;100.00;100642.41;5099015;28;20217;-69
2021/08/05 04:29:40;;;;;;;6.10;3.47;;;;;;;12.54;99.54;100639.00;5117421;28;20258;-69
2021/08/05 04:32:06;;;;;;;5.87;3.67;;;;;;;12.63;98.53;100635.72;5117779;28;20201;-70
2021/08/05 04:34:31;;;;;;;6.80;3.47;;;;;;;12.87;99.49;100643.13;5116698;28;20228;-71
2021/08/05 04:36:57;;;;;;;3.77;3.40;;;;;;;12.72;97.47;100639.66;5115990;28;20173;-69
2021/08/05 04:39:22;;;;;;;3.90;2.63;;;;;;;12.72;92.57;100636.97;5117529;28;20193;-70
2021/08/05 04:41:47;;;;;;;5.00;2.80;;;;;;;12.59;93.66;100636.03;5099338;28;20181;-71
2021/08/05 04:44:12;;;;;;;3.67;2.80;;;;;;;12.53;93.60;100631.94;5116751;28;20178;-70
2021/08/05 04:46:38;;;;;;;7.50;3.10;;;;;;;12.55;94.77;100631.81;5116757;28;20646;-68
2021/08/05 04:49:03;;;;;;;3.40;2.80;;;;;;;12.61;93.72;100634.09;5115498;28;20189;-70
2021/08/05 04:51:31;;;;;;;4.53;2.87;;;;;;;12.68;93.53;100630.09;5115659;28;20261;-70
2021/08/05 04:54:00;;;;;;;5.63;3.23;;;;;;;12.74;93.44;100635.91;5115856;28;20173;-70
2021/08/05 04:56:25;;;;;;;4.00;2.97;;;;;;;12.94;91.24;100634.59;5098618;28;20174;-70
2021/08/05 04:58:50;;;;;;;4.93;3.50;;;;;;;12.92;90.68;100622.25;5116580;28;20200;-69
2021/08/05 05:01:16;;;;;;;6.00;3.07;;;;;;;12.94;91.28;100636.41;5115913;28;20174;-70
2021/08/05 05:03:41;;;;;;;4.57;3.20;;;;;;;13.05;90.63;100637.44;5114564;28;20230;-71
2021/08/05 05:06:06;;;;;;;4.40;2.60;;;;;;;13.12;90.42;100624.50;5115528;28;20561;-69
2021/08/05 05:08:31;;;;;;;10.40;2.80;;;;;;;13.19;90.38;100627.66;5115575;28;20194;-70
2021/08/05 05:10:57;;;;;;;6.23;2.93;;;;;;;13.33;92.23;100630.25;5115536;28;20177;-70
2021/08/05 05:13:22;;;;;;;4.90;2.80;;;;;;;13.46;94.08;100625.81;5115397;28;20181;-70
2021/08/05 05:15:48;;;;;;;8.07;3.20;;;;;;;13.62;94.94;100631.81;5115091;28;20253;-70
2021/08/05 05:18:15;;;;;;;5.60;3.67;;;;;;;13.38;94.50;100618.28;5114778;28;20197;-71
2021/08/05 05:20:41;;;;;;;3.50;2.73;;;;;;;13.37;93.70;100624.56;5115148;28;20194;-71
2021/08/05 05:23:06;;;;;;;4.80;3.00;;;;;;;13.37;91.68;100632.63;5115059;28;20644;-72
2021/08/05 05:25:33;;;;;;;3.87;2.77;;;;;;;13.35;91.79;100629.19;5115092;28;20234;-71
2021/08/05 05:27:58;;;;;;;3.80;2.90;;;;;;;13.43;92.40;100626.88;5114634;28;20296;-70
2021/08/05 05:30:24;;;;;;;2.90;2.70;;;;;;;13.53;92.79;100632.47;5115193;28;20605;-70
2021/08/05 05:32:49;;;;;;;3.60;2.60;;;;;;;13.63;92.96;100617.44;5115072;28;20188;-70
2021/08/05 05:35:17;;;;;;;6.13;3.40;;;;;;;13.69;93.49;100627.75;5114901;28;20205;-70
2021/08/05 05:37:43;;;;;;;7.60;3.10;;;;;;;13.71;93.58;100619.59;5114549;28;20170;-70
2021/08/05 05:40:09;;;;;;;8.40;3.30;;;;;;;13.70;94.88;100618.72;5115099;28;20178;-70
2021/08/05 05:42:35;;;;;;;6.70;2.97;;;;;;;13.91;93.94;100616.41;5097516;28;20184;-70
2021/08/05 05:45:00;;;;;;;7.67;3.47;;;;;;;13.69;91.49;100621.53;5114705;28;20525;-70
2021/08/05 05:47:26;;;;;;;5.17;3.00;;;;;;;13.72;91.17;100622.16;5114500;28;20193;-70
2021/08/05 05:49:52;;;;;;;7.07;3.03;;;;;;;13.75;91.72;100626.47;5115524;28;20239;-70
2021/08/05 05:52:18;;;;;;;4.40;3.17;;;;;;;13.76;91.56;100617.47;5114429;28;20170;-70
2021/08/05 05:54:43;;;;;;;4.33;3.00;;;;;;;13.81;91.09;100617.16;5097143;28;20188;-71
2021/08/05 05:57:09;;;;;;;5.57;3.00;;;;;;;13.87;91.85;100617.56;5114577;28;20188;-72
2021/08/05 05:59:34;;;;;;;4.80;3.30;;;;;;;13.96;93.94;100619.59;5097317;28;20557;-70
2021/08/05 06:01:59;;;;;;;5.63;3.03;;;;;;;14.20;93.84;100621.53;5115530;28;20181;-70
2021/08/05 06:04:26;;;;;;;4.13;2.77;;;;;;;14.36;93.22;100622.13;5115609;28;20234;-70
2021/08/05 06:06:51;;;;;;;6.60;3.10;;;;;;;14.43;93.53;100626.13;5097116;28;20193;-69
2021/08/05 06:09:16;;;;;;;7.47;2.93;;;;;;;14.51;93.40;100620.22;5114138;28;20216;-71
2021/08/05 06:11:42;;;;;;;7.63;2.90;;;;;;;14.58;93.23;100614.28;5115234;28;20177;-71
2021/08/05 06:14:07;;;;;;;18.80;3.30;;;;;;;14.79;91.92;100619.03;5115642;28;20170;-70
2021/08/05 06:16:32;;;;;;;8.47;2.87;;;;;;;14.88;91.79;100615.69;5097079;28;20180;-71
2021/08/05 06:18:58;;;;;;;4.53;2.80;;;;;;;15.02;91.34;100604.78;5097395;28;20224;-71
2021/08/05 06:21:23;;;;;;;4.63;2.90;;;;;;;15.12;91.12;100603.09;5114262;28;20670;-70
2021/08/05 06:23:48;;;;;;;4.63;2.87;;;;;;;15.28;90.88;100606.34;5114260;28;20634;-70
2021/08/05 06:26:14;;;;;;;5.40;3.73;;;;;;;15.31;90.01;100614.19;5114040;28;20198;-70
2021/08/05 06:28:40;;;;;;;3.80;2.57;;;;;;;15.56;89.99;100604.22;5097178;28;20225;-70
2021/08/05 06:31:05;;;;;;;3.67;2.70;;;;;;;15.62;89.27;100618.13;5114548;28;20523;-70
2021/08/05 06:33:32;;;;;;;4.77;2.97;;;;;;;15.85;88.94;100615.44;5114498;28;20222;-71
2021/08/05 06:35:57;;;;;;;4.43;2.90;;;;;;;16.04;88.66;100617.56;5098368;28;20177;-70
2021/08/05 06:38:22;;;;;;;4.43;2.97;;;;;;;16.21;86.78;100612.53;5115664;28;20198;-71
2021/08/05 06:40:47;;;;;;;5.10;3.10;;;;;;;16.35;85.02;100613.25;5099539;28;20181;-70
2021/08/05 06:43:13;;;;;;;6.10;3.00;;;;;;;16.53;84.17;100618.03;5119295;28;20173;-70
2021/08/05 06:45:38;;;;;;;4.90;2.80;;;;;;;16.56;84.92;100617.78;5137483;28;20177;-70
2021/08/05 06:48:04;;;;;;;4.13;2.87;;;;;;;16.76;84.70;100616.22;5136968;28;20231;-70
2021/08/05 06:50:29;;;;;;;4.13;2.73;;;;;;;16.78;83.45;100613.38;5136957;28;20188;-70
2021/08/05 06:52:54;;;;;;;5.50;2.70;;;;;;;17.00;83.21;100615.16;5119535;28;20196;-71
2021/08/05 06:55:20;;;;;;;8.60;2.90;;;;;;;17.15;82.23;100614.75;5137561;28;20244;-71
2021/08/05 06:57:45;;;;;;;3.27;2.53;;;;;;;17.30;80.97;100617.13;5136695;28;20185;-71
2021/08/05 07:00:11;;;;;;;3.53;2.53;;;;;;;17.26;80.31;100604.88;5121148;28;20174;-70
2021/08/05 07:02:36;;;;;;;6.53;2.80;;;;;;;17.34;79.94;100613.19;5096440;28;20172;-71
2021/08/05 07:05:03;;;;;;;4.13;2.90;;;;;;;17.55;79.72;100605.97;5113802;28;20200;-70
2021/08/05 07:07:29;;;;;;;14.70;3.77;;;;;;;17.76;79.34;100612.25;5113375;28;20196;-71
2021/08/05 07:09:55;;;;;;;6.17;2.70;;;;;;;17.88;77.93;100613.03;5113475;28;20168;-71
2021/08/05 07:12:21;;;;;;;4.43;2.67;;;;;;;18.00;76.44;100614.66;5114483;28;20205;-70
2021/08/05 07:14:46;;;;;;;5.17;2.60;;;;;;;17.88;76.74;100609.47;5114233;28;20170;-70
2021/08/05 07:17:11;;;;;;;5.47;2.70;;;;;;;17.99;77.07;100610.25;5113169;28;20165;-71
2021/08/05 07:19:37;;;;;;;5.07;2.63;;;;;;;18.04;75.33;100609.84;5113080;28;20189;-71
2021/08/05 07:22:02;;;;;;;7.13;2.63;;;;;;;18.06;75.43;100605.16;5114139;28;20218;-71
2021/08/05 07:24:28;;;;;;;3.10;2.40;;;;;;;18.11;74.04;100609.16;5095809;28;20246;-71
2021/08/05 07:26:53;;;;;;;2.87;2.50;;;;;;;18.37;74.30;100606.88;5115070;28;20226;-71
2021/08/05 07:29:18;;;;;;;3.67;2.30;;;;;;;18.49;72.85;100604.06;5117697;28;20773;-71
2021/08/05 07:31:44;;;;;;;4.67;2.53;;;;;;;18.58;69.47;100603.22;5115829;28;20174;-71
2021/08/05 07:34:09;;;;;;;5.33;2.57;;;;;;;18.62;71.20;100602.00;5115364;28;20211;-69
2021/08/05 07:36:34;;;;;;;3.23;2.30;;;;;;;18.79;68.94;100601.31;5112511;28;20530;-70
2021/08/05 07:38:59;;;;;;;2.87;1.90;;;;;;;18.77;67.85;100599.75;5112558;28;20190;-70
2021/08/05 07:41:25;;;;;;;8.43;2.57;;;;;;;18.74;66.85;100600.91;5095357;28;20169;-70
2021/08/05 07:43:50;;;;;;;4.90;2.30;;;;;;;18.84;63.29;100596.34;5113495;28;20173;-70
2021/08/05 07:46:15;;;;;;;2.87;2.10;;;;;;;18.99;63.89;100592.25;5112405;28;20554;-71
2021/08/05 07:48:41;;;;;;;3.30;2.00;;;;;;;19.04;64.00;100586.44;5113560;28;20189;-70
2021/08/05 07:51:06;;;;;;;2.17;1.63;;;;;;;18.99;62.99;100589.56;5114046;28;20197;-70
2021/08/05 07:53:32;;;;;;;4.27;1.80;;;;;;;19.13;63.18;100587.41;5095255;28;20177;-70
2021/08/05 07:55:57;;;;;;;2.40;1.50;;;;;;;19.23;62.76;100582.84;5112556;28;20189;-70
2021/08/05 07:58:23;;;;;;;4.63;2.20;;;;;;;19.13;63.53;100590.13;5113738;28;20235;-69
2021/08/05 08:00:48;;;;;;;7.93;2.03;;;;;;;19.26;63.04;100588.84;5113437;28;20170;-70
2021/08/05 08:03:15;;;;;;;2.80;1.77;;;;;;;19.31;61.96;100577.56;5095174;28;20216;-71
2021/08/05 08:05:40;;;;;;;2.30;1.80;;;;;;;19.43;62.56;100575.59;5112416;28;20532;-70
2021/08/05 08:08:06;;;;;;;2.20;1.80;;;;;;;19.56;61.60;100584.28;5112074;28;20197;-71
2021/08/05 08:10:32;;;;;;;3.37;1.80;;;;;;;19.71;60.69;100587.41;5112439;28;20166;-70
2021/08/05 08:12:57;;;;;;;3.47;1.90;;;;;;;19.67;61.33;100581.41;5095324;28;20242;-71
2021/08/05 08:15:24;;;;;;;3.93;2.00;;;;;;;19.84;61.49;100587.94;5112077;28;20649;-70
2021/08/05 08:17:50;;;;;;;2.60;1.90;;;;;;;19.83;60.70;100583.53;5112104;28;20224;-71
2021/08/05 08:20:16;;;;;;;2.77;1.90;;;;;;;19.73;60.52;100580.84;5095498;28;20181;-71
2021/08/05 08:22:41;;;;;;;3.43;1.80;;;;;;;19.86;61.42;100578.69;5095513;28;20177;-71
2021/08/05 08:25:07;;;;;;;3.03;1.60;;;;;;;19.88;60.27;100573.97;5095210;28;20196;-70
2021/08/05 08:27:32;;;;;;;3.17;1.80;;;;;;;19.85;60.52;100573.41;5111958;28;20569;-71
2021/08/05 08:29:58;;;;;;;2.53;1.67;;;;;;;19.93;59.60;100565.38;5112445;28;20174;-71
2021/08/05 08:32:23;;;;;;;5.43;2.00;;;;;;;20.01;60.72;100568.22;5113680;28;20618;-71
2021/08/05 08:34:48;;;;;;;3.00;1.80;;;;;;;20.41;59.84;100569.78;5094901;28;20177;-71
2021/08/05 08:37:14;;;;;;;5.30;1.80;;;;;;;20.20;58.85;100570.00;5113382;28;20691;-71
2021/08/05 08:39:39;;;;;;;4.47;1.77;;;;;;;20.19;59.96;100574.56;5115624;28;20629;-71
2021/08/05 08:42:06;;;;;;;4.53;1.70;;;;;;;20.60;59.27;100566.97;5116015;28;20622;-71
2021/08/05 08:44:32;;;;;;;3.87;1.70;;;;;;;20.56;59.24;100565.56;5115764;28;20222;-70
2021/08/05 08:46:57;;;;;;;7.33;1.93;;;;;;;20.50;58.19;100566.19;5115743;28;20193;-72
2021/08/05 08:49:23;;;;;;;2.53;1.90;;;;;;;20.78;58.09;100562.41;5098826;28;20204;-71
2021/08/05 08:51:49;;;;;;;2.70;2.07;;;;;;;21.02;58.23;100561.81;5098713;28;20275;-72
2021/08/05 08:54:14;;;;;;;3.63;2.00;;;;;;;21.00;58.44;100569.25;5115953;28;20211;-71
2021/08/05 08:56:41;;;;;;;3.00;1.70;;;;;;;21.18;56.51;100567.38;5116818;28;20248;-71
2021/08/05 08:59:06;;;;;;;4.03;1.87;;;;;;;20.99;54.38;100550.44;5098512;28;20239;-71
2021/08/05 09:01:32;;;;;;;1.90;1.50;;;;;;;21.02;53.18;100558.25;5116511;28;20178;-70
2021/08/05 09:03:57;;;;;;;3.40;1.70;;;;;;;21.22;53.82;100555.25;5115512;28;20173;-71
2021/08/05 09:06:23;;;;;;;2.20;1.80;;;;;;;21.13;54.35;100548.00;5116708;28;20209;-72
2021/08/05 09:08:51;;;;;;;3.03;1.80;;;;;;;21.17;53.71;100553.97;5098377;28;20513;-71
2021/08/05 09:11:17;;;;;;;2.73;1.63;;;;;;;21.69;53.36;100545.94;5115634;28;20215;-71
2021/08/05 09:13:42;;;;;;;2.90;2.00;;;;;;;21.59;54.47;100547.91;5098040;28;20185;-70
2021/08/05 09:16:20;;;;;;;5.00;1.77;;;;;;;21.37;52.00;100544.69;5098120;28;20579;-71
2021/08/05 09:18:46;;;;;;;3.00;1.43;;;;;;;21.30;51.16;100542.78;5116306;28;20192;-71
2021/08/05 09:21:15;;;;;;;2.45;1.70;;;;;;;21.39;51.13;100539.97;5116879;28;20165;-71
2021/08/05 09:23:52;;;;;;;2.73;1.63;;;;;;;21.50;51.61;100544.28;5116477;28;20658;-71
2021/08/05 09:26:24;;;;;;;2.20;1.53;;;;;;;21.65;49.70;100542.69;5116257;28;20221;-71
2021/08/05 09:29:18;;;;;;;2.60;1.60;;;;;;;21.65;50.98;100542.69;5115790;28;20204;-70
2021/08/05 09:31:51;;;;;;;3.77;1.90;;;;;;;21.79;52.68;100543.97;5116249;28;20165;-70
2021/08/05 09:34:30;;;;;;;3.80;2.17;;;;;;;22.09;52.29;100540.78;5114682;28;20165;-71
2021/08/05 09:37:00;;;;;;;9.17;2.40;;;;;;;22.00;51.74;100541.72;5114730;28;20240;-73
2021/08/05 09:39:30;;;;;;;3.93;2.00;;;;;;;22.57;50.81;100533.81;5117111;28;20191;-71
2021/08/05 09:42:01;;;;;;;1.77;1.67;;;;;;;22.37;50.66;100538.69;5121078;28;20634;-71
2021/08/05 09:44:48;;;;;;;5.70;1.90;;;;;;;22.93;50.74;100526.28;5123366;28;20170;-71
2021/08/05 09:47:21;;;;;;;2.93;1.60;;;;;;;22.79;50.84;100535.06;5121181;28;20228;-71
2021/08/05 09:49:46;;;;;;;2.17;1.60;;;;;;;22.29;50.23;100526.91;5097489;28;20192;-72
2021/08/05 09:52:11;;;;;;;2.03;1.57;;;;;;;22.77;48.18;100527.06;5115667;28;20532;-71
2021/08/05 09:54:42;;;;;;;2.87;1.50;;;;;;;22.73;48.18;100528.44;5114161;28;20302;-71
2021/08/05 09:57:08;;;;;;;3.30;1.50;;;;;;;22.60;48.53;100533.47;5096877;28;20630;-71
2021/08/05 09:59:34;;;;;;;3.43;1.70;;;;;;;23.08;47.59;100531.91;5097229;28;20307;-71
2021/08/05 10:02:05;;;;;;;1.77;1.27;;;;;;;;;;5096913;28;20276;-71
2021/08/05 10:04:32;;;;;;;1.70;1.60;;;;;;;23.38;46.66;100511.31;5113765;28;20181;-71
2021/08/05 10:07:00;;;;;;;2.10;1.53;;;;;;;24.05;45.93;100508.28;5113862;28;20566;-70
2021/08/05 10:09:25;;;;;;;2.10;1.70;;;;;;;23.88;46.52;100513.81;5114133;28;20209;-73
2021/08/05 10:11:51;;;;;;;5.63;2.00;;;;;;;23.74;47.25;100506.34;5113949;28;20698;-71
2021/08/05 10:14:21;;;;;;;6.37;1.73;;;;;;;24.16;47.91;100508.78;5114047;28;20246;-71
2021/08/05 10:16:46;;;;;;;2.10;1.60;;;;;;;24.00;46.17;100506.94;5096724;28;20256;-71
2021/08/05 10:19:12;;;;;;;2.70;1.47;;;;;;;24.06;45.68;100504.53;5113426;28;20288;-70
2021/08/05 10:21:37;;;;;;;2.20;1.50;;;;;;;24.70;44.63;100499.81;5113538;28;20658;-71
2021/08/05 10:24:03;;;;;;;3.83;1.40;;;;;;;24.83;44.45;100502.78;5096423;28;20177;-71
2021/08/05 10:26:29;;;;;;;4.30;1.73;;;;;;;24.08;46.09;100497.03;5096464;28;20292;-71
2021/08/05 10:28:54;;;;;;;1.63;1.30;;;;;;;24.50;46.08;100499.41;5128711;22;20244;-69
2021/08/05 10:31:19;;;;;;;2.67;2.00;;;;;;;24.79;45.94;100496.84;5093077;28;20208;-68
2021/08/05 10:33:46;;;;;;;1.60;1.20;;;;;;;24.91;43.26;100489.09;5110383;28;20643;-68
2021/08/05 10:36:11;;;;;;;2.70;1.60;;;;;;;23.90;45.59;100484.50;5110080;28;20176;-70
2021/08/05 10:38:37;;;;;;;2.27;1.60;;;;;;;24.10;44.97;100484.06;5094501;28;20213;-68
2021/08/05 10:41:02;;;;;;;2.17;1.60;;;;;;;24.53;43.74;100480.84;5093372;28;20174;-68
2021/08/05 10:43:28;;;;;;;3.23;1.73;;;;;;;24.77;43.07;100476.22;5076925;28;20182;-68
2021/08/05 10:45:54;;;;;;;2.50;1.60;;;;;;;24.43;42.82;100471.16;5094307;28;20174;-70
2021/08/05 10:48:20;;;;;;;5.47;2.40;;;;;;;25.19;42.05;100476.59;5093841;28;20301;-68
2021/08/05 10:50:47;;;;;;;2.87;1.43;;;;;;;25.04;43.79;100470.25;5092926;28;20260;-68
2021/08/05 10:53:31;;;;;;;2.13;1.40;;;;;;;24.92;44.55;100468.97;5094206;28;20212;-68
2021/08/05 10:56:16;;;;;;;4.47;1.67;;;;;;;24.97;43.25;100461.06;5093959;28;20170;-68
2021/08/05 10:59:02;;;;;;;1.97;1.57;;;;;;;26.08;40.84;100465.78;5092852;28;20219;-68
2021/08/05 11:01:53;;;;;;;4.20;1.33;;;;;;;25.47;42.16;100456.88;5093716;28;20159;-70
2021/08/05 11:04:38;;;;;;;4.47;1.60;;;;;;;24.85;42.95;100451.59;5092797;28;20274;-69
2021/08/05 11:07:24;;;;;;;2.37;1.40;;;;;;;24.98;42.90;100437.34;5093790;28;20190;-70
2021/08/05 11:09:50;;;;;;;1.90;1.60;;;;;;;27.09;39.01;100443.75;5092834;28;20268;-70
2021/08/05 11:12:40;;;;;;;2.83;1.50;;;;;;;27.41;37.95;100445.06;5075772;28;20174;-70
2021/08/05 11:15:29;;;;;;;4.20;2.03;;;;;;;27.97;36.87;100442.28;5094338;28;20201;-70
2021/08/05 11:18:16;;;;;;;3.53;1.98;;;;;;;31.14;32.71;100451.19;5093916;28;20110;-68
2021/08/05 11:20:44;;;;;;;2.55;2.20;;;;;;;32.23;30.93;100451.38;5094358;28;20154;-69
2021/08/05 11:23:34;;;;;;;1.60;1.40;;;;;;;31.86;31.05;100447.78;5093771;28;20171;-69